sim
Sign-in with your pilot id or email,
or register
Callsign
Passwort

Schedule Details

Flight Number: DLH114
Departure: Frankfurt Airport (EDDF) at 16:15
Arrival: Munich Airport (EDDM) at 17:10
Route: Lufthansa Passenger Schedule. Enter filed route here before submitting Pirep.

Weather Information
Getting current METAR information for EDDF 211250Z 33005KT 300V040 CAVOK 25/07 Q1015 NOSIG
Getting current METAR information for EDDM 211250Z 03004KT 340V140 CAVOK 23/12 Q1016 NOSIG

Schedule Frequency

Route Map